Time;durP1;ratioP1;P1;durP2;ratioP2;P2;SDS_P1;SDS_P2;PMS_P1;PMS_P2;Temp;Humidity;BMP_temperature;BMP_pressure;BME280_temperature;BME280_humidity;BME280_pressure;Samples;Min_cycle;Max_cycle;Signal;HPM_P1;HPM_P2
2021/03/01 00:00:13;;;;;;;;;;;;;;;2.60;80.66;101773.41;1830586;78;20211;-49
2021/03/01 00:02:41;;;;;;;;;;;;;;;2.55;81.56;101771.59;1830661;78;20283;-50
2021/03/01 00:05:10;;;;;;;;;;;;;;;2.50;82.33;101771.92;1830668;78;21385;-50
2021/03/01 00:07:37;;;;;;;;;;;;;;;2.46;83.31;101770.11;1830458;78;20108;-50
2021/03/01 00:10:05;;;;;;;;;;;;;;;2.40;83.97;101767.38;1830727;78;20211;-50
2021/03/01 00:12:33;;;;;;;;;;;;;;;2.36;84.62;101766.42;1830625;78;20502;-50
2021/03/01 00:15:00;;;;;;;;;;;;;;;2.34;85.54;101764.19;1830613;78;20262;-50
2021/03/01 00:17:28;;;;;;;;;;;;;;;2.33;86.30;101764.19;1830560;78;21395;-50
2021/03/01 00:19:56;;;;;;;;;;;;;;;2.31;87.06;101761.92;1830541;78;20140;-50
2021/03/01 00:22:23;;;;;;;;;;;;;;;2.27;87.65;101755.27;1830514;78;20223;-49
2021/03/01 00:24:50;;;;;;;;;;;;;;;2.24;88.51;101752.57;1830507;78;20263;-50
2021/03/01 00:27:18;;;;;;;;;;;;;;;2.21;88.97;101741.03;1830674;78;20223;-50
2021/03/01 00:29:46;;;;;;;;;;;;;;;2.20;89.80;101743.23;1830527;78;21199;-50
2021/03/01 00:32:13;;;;;;;;;;;;;;;2.17;90.42;101743.19;1830449;78;20211;-50
2021/03/01 00:34:41;;;;;;;;;;;;;;;2.15;90.89;101731.27;1829920;78;20168;-50
2021/03/01 00:37:08;;;;;;;;;;;;;;;2.11;91.55;101725.48;1830029;78;20228;-50
2021/03/01 00:39:36;;;;;;;;;;;;;;;2.09;92.04;101728.50;1829930;78;20216;-50
2021/03/01 00:42:03;;;;;;;;;;;;;;;2.08;92.46;101718.79;1829967;78;21447;-50
2021/03/01 00:44:31;;;;;;;;;;;;;;;2.07;93.16;101720.56;1792586;79;20224;-49
2021/03/01 00:46:58;;;;;;;;;;;;;;;2.07;93.56;101720.98;1818101;79;20216;-50
2021/03/01 00:49:26;;;;;;;;;;;;;;;2.06;94.01;101712.17;1818138;79;20212;-50
2021/03/01 00:51:53;;;;;;;;;;;;;;;2.04;94.50;101710.35;1818106;79;20240;-50
2021/03/01 00:54:21;;;;;;;;;;;;;;;2.03;94.97;101711.22;1818135;79;21700;-50
2021/03/01 00:56:50;;;;;;;;;;;;;;;1.99;95.28;101709.85;1817942;78;20272;-50
2021/03/01 00:59:17;;;;;;;;;;;;;;;2.02;95.86;101702.83;1836304;78;20216;-50
2021/03/01 01:01:46;;;;;;;;;;;;;;;2.03;96.09;101705.93;1750090;80;20237;-50
2021/03/01 01:04:14;;;;;;;;;;;;;;;2.05;96.37;101697.58;1744853;82;20225;-50
2021/03/01 01:06:43;;;;;;;;;;;;;;;2.05;96.51;101698.48;1763476;81;20308;-50
2021/03/01 01:09:10;;;;;;;;;;;;;;;2.05;96.84;101699.81;1763549;81;20308;-50
2021/03/01 01:11:38;;;;;;;;;;;;;;;2.07;97.13;101705.10;1763507;81;20292;-50
2021/03/01 01:14:06;;;;;;;;;;;;;;;2.09;97.21;101700.73;1763582;81;20550;-50
2021/03/01 01:16:33;;;;;;;;;;;;;;;2.11;97.44;101694.60;1763544;81;20516;-50
2021/03/01 01:19:00;;;;;;;;;;;;;;;2.18;97.57;101696.01;1763450;81;21218;-50
2021/03/01 01:21:29;;;;;;;;;;;;;;;2.20;97.55;101697.83;1761089;81;20221;-50
2021/03/01 01:23:58;;;;;;;;;;;;;;;2.20;97.52;101693.86;1751955;82;20489;-50
2021/03/01 01:26:25;;;;;;;;;;;;;;;2.20;97.51;101692.95;1751939;82;20217;-50
2021/03/01 01:28:52;;;;;;;;;;;;;;;2.20;97.52;101691.63;1751876;82;20241;-50
2021/03/01 01:31:20;;;;;;;;;;;;;;;2.19;97.57;101693.40;1752005;82;21612;-50
2021/03/01 01:33:47;;;;;;;;;;;;;;;2.20;97.67;101685.02;1751859;82;20233;-50
2021/03/01 01:36:14;;;;;;;;;;;;;;;2.23;97.69;101687.73;1751991;82;20217;-50
2021/03/01 01:38:44;;;;;;;;;;;;;;;2.23;97.64;101679.34;1750672;82;20241;-50
2021/03/01 01:41:11;;;;;;;;;;;;;;;2.20;97.60;101677.08;1751889;82;20237;-50
2021/03/01 01:43:38;;;;;;;;;;;;;;;2.18;97.56;101671.77;1757330;80;21707;-50
2021/03/01 01:46:06;;;;;;;;;;;;;;;2.18;97.58;101675.75;1777794;80;20215;-50
2021/03/01 01:48:33;;;;;;;;;;;;;;;2.17;97.62;101675.71;1777978;80;20231;-50
2021/03/01 01:51:00;;;;;;;;;;;;;;;2.18;97.75;101684.10;1777812;80;20286;-50
2021/03/01 01:53:28;;;;;;;;;;;;;;;2.18;97.86;101682.36;1777995;80;20218;-50
2021/03/01 01:55:55;;;;;;;;;;;;;;;2.17;97.96;101683.23;1777837;80;21353;-50
2021/03/01 01:58:23;;;;;;;;;;;;;;;2.17;98.08;101671.33;1777926;80;20215;-50
2021/03/01 02:00:51;;;;;;;;;;;;;;;2.20;98.15;101681.95;1777830;80;20290;-50
2021/03/01 02:03:48;;;;;;;;;;;;;;;2.23;98.16;101677.14;1777966;80;20219;-50
2021/03/01 02:06:45;;;;;;;;;;;;;;;2.23;98.10;101674.05;1777970;80;20242;-50
2021/03/01 02:09:33;;;;;;;;;;;;;;;2.24;98.00;101684.22;1777777;80;21376;-50
2021/03/01 02:12:36;;;;;;;;;;;;;;;2.20;97.99;101685.92;1777904;80;20270;-50
2021/03/01 02:15:14;;;;;;;;;;;;;;;2.19;98.12;101692.08;1777788;80;20234;-51
2021/03/01 02:17:42;;;;;;;;;;;;;;;2.17;98.23;101685.88;1777810;80;20219;-49
2021/03/01 02:20:11;;;;;;;;;;;;;;;2.15;98.36;101684.97;1777937;80;20238;-49
2021/03/01 02:22:39;;;;;;;;;;;;;;;2.16;98.45;101684.09;1769883;80;21369;-50
2021/03/01 02:25:09;;;;;;;;;;;;;;;2.21;98.59;101690.34;1763562;81;21228;-50
2021/03/01 02:27:42;;;;;;;;;;;;;;;2.22;98.58;101689.47;1763335;81;20218;-49
2021/03/01 02:30:20;;;;;;;;;;;;;;;2.16;98.66;101688.06;1763555;81;20269;-49
2021/03/01 02:32:47;;;;;;;;;;;;;;;2.11;98.87;101691.09;1763454;80;20218;-49
2021/03/01 02:35:15;;;;;;;;;;;;;;;2.10;99.18;101691.92;1763609;81;23217;-50
2021/03/01 02:37:42;;;;;;;;;;;;;;;2.11;99.33;101694.60;1763373;81;20290;-49
2021/03/01 02:40:12;;;;;;;;;;;;;;;2.11;99.42;101691.95;1763564;81;20341;-50
2021/03/01 02:42:39;;;;;;;;;;;;;;;2.12;99.54;101691.55;1763383;81;20219;-50
2021/03/01 02:45:08;;;;;;;;;;;;;;;2.13;99.66;101695.52;1763424;81;20224;-50
2021/03/01 02:47:35;;;;;;;;;;;;;;;2.12;99.73;101698.16;1763416;81;21163;-49
2021/03/01 02:50:03;;;;;;;;;;;;;;;2.12;99.89;101696.38;1763252;81;20216;-50
2021/03/01 02:52:31;;;;;;;;;;;;;;;2.11;99.95;101694.60;1763470;81;20292;-50
2021/03/01 02:54:59;;;;;;;;;;;;;;;2.11;99.92;101693.73;1763396;81;20221;-50
2021/03/01 02:57:26;;;;;;;;;;;;;;;2.13;99.99;101693.32;1763420;81;20237;-49
2021/03/01 02:59:55;;;;;;;;;;;;;;;2.17;100.00;101699.11;1763373;81;21759;-50
2021/03/01 03:02:25;;;;;;;;;;;;;;;2.20;100.00;101695.17;1736235;81;20240;-50
2021/03/01 03:04:53;;;;;;;;;;;;;;;2.22;100.00;101696.09;1763158;81;20266;-50
2021/03/01 03:07:20;;;;;;;;;;;;;;;2.23;100.00;101699.19;1763405;81;20267;-50
2021/03/01 03:09:47;;;;;;;;;;;;;;;2.26;100.00;101703.65;1711905;81;20223;-50
2021/03/01 03:12:14;;;;;;;;;;;;;;;2.25;99.97;101698.77;1763396;81;21386;-50
2021/03/01 03:14:42;;;;;;;;;;;;;;;2.23;99.88;101698.31;1763419;81;20221;-50
2021/03/01 03:17:09;;;;;;;;;;;;;;;2.22;99.91;101697.86;1763384;81;20232;-50
2021/03/01 03:19:36;;;;;;;;;;;;;;;2.25;100.00;101693.94;1763435;81;20228;-50
2021/03/01 03:22:04;;;;;;;;;;;;;;;2.27;100.00;101699.69;1757468;81;20251;-50
2021/03/01 03:24:31;;;;;;;;;;;;;;;2.28;100.00;101700.59;1732099;83;21217;-50
2021/03/01 03:26:58;;;;;;;;;;;;;;;2.28;100.00;101703.23;1732013;83;20239;-50
2021/03/01 03:29:25;;;;;;;;;;;;;;;2.27;100.00;101702.33;1732108;83;20231;-50
2021/03/01 03:31:53;;;;;;;;;;;;;;;2.27;100.00;101698.36;1731966;83;20222;-50
2021/03/01 03:34:20;;;;;;;;;;;;;;;2.27;100.00;101698.36;1732151;83;20261;-50
2021/03/01 03:36:51;;;;;;;;;;;;;;;2.27;100.00;101695.72;1732042;83;21403;-50
2021/03/01 03:39:18;;;;;;;;;;;;;;;2.27;100.00;101695.72;1731806;83;20294;-50
2021/03/01 03:41:48;;;;;;;;;;;;;;;2.29;100.00;101700.59;1732161;83;20294;-50
2021/03/01 03:44:15;;;;;;;;;;;;;;;2.28;100.00;101690.87;1732706;82;20271;-50
2021/03/01 03:46:43;;;;;;;;;;;;;;;2.27;100.00;101702.33;1698611;84;20243;-50
2021/03/01 03:49:11;;;;;;;;;;;;;;;2.25;100.00;101694.80;1733279;83;21202;-50
2021/03/01 03:51:38;;;;;;;;;;;;;;;2.24;100.00;101700.09;1733315;83;20259;-50
2021/03/01 03:54:12;;;;;;;;;;;;;;;2.22;100.00;101705.34;1733332;82;20248;-50
2021/03/01 03:56:40;;;;;;;;;;;;;;;2.19;100.00;101697.38;1732969;83;20236;-50
2021/03/01 03:59:09;;;;;;;;;;;;;;;2.21;100.00;101709.28;1733266;83;20243;-50
2021/03/01 04:01:36;;;;;;;;;;;;;;;2.19;100.00;101698.69;1733358;83;22374;-50
2021/03/01 04:04:06;;;;;;;;;;;;;;;2.19;100.00;101709.27;1733269;83;20262;-50
2021/03/01 04:06:36;;;;;;;;;;;;;;;2.19;100.00;101705.31;1733284;83;20231;-50
2021/03/01 04:09:07;;;;;;;;;;;;;;;2.19;100.00;101702.66;1733530;82;20295;-50
2021/03/01 04:11:35;;;;;;;;;;;;;;;2.19;100.00;101707.95;1733150;82;20260;-50
2021/03/01 04:14:02;;;;;;;;;;;;;;;2.20;100.00;101706.18;1733632;82;21160;-50
2021/03/01 04:16:30;;;;;;;;;;;;;;;2.19;100.00;101713.25;1733367;82;20256;-50
2021/03/01 04:19:01;;;;;;;;;;;;;;;2.16;100.00;101710.56;1733509;82;20238;-50
2021/03/01 04:21:29;;;;;;;;;;;;;;;2.16;100.00;101713.20;1733410;82;20262;-49
2021/03/01 04:23:56;;;;;;;;;;;;;;;2.15;100.00;101711.42;1755464;81;20220;-50
2021/03/01 04:26:23;;;;;;;;;;;;;;;2.14;100.00;101718.45;1760514;81;21417;-50
2021/03/01 04:28:50;;;;;;;;;;;;;;;2.15;100.00;101719.36;1760567;81;20276;-50
2021/03/01 04:31:18;;;;;;;;;;;;;;;2.15;100.00;101725.98;1760466;81;20221;-50
2021/03/01 04:33:45;;;;;;;;;;;;;;;2.14;100.00;101730.81;1731065;81;20920;-50
2021/03/01 04:36:13;;;;;;;;;;;;;;;2.14;100.00;101729.05;1760537;81;20240;-50
2021/03/01 04:38:40;;;;;;;;;;;;;;;2.14;100.00;101726.84;1731126;81;21156;-50
2021/03/01 04:41:07;;;;;;;;;;;;;;;2.13;100.00;101727.27;1730700;81;20282;-50
2021/03/01 04:43:37;;;;;;;;;;;;;;;2.14;100.00;101726.84;1760141;81;20213;-50
2021/03/01 04:46:04;;;;;;;;;;;;;;;2.11;100.00;101734.74;1759013;81;20515;-50
2021/03/01 04:48:32;;;;;;;;;;;;;;;2.10;100.00;101734.25;1758959;81;20228;-50
2021/03/01 04:50:59;;;;;;;;;;;;;;;2.10;100.00;101736.90;1758978;81;21391;-50
2021/03/01 04:53:27;;;;;;;;;;;;;;;2.10;100.00;101739.13;1758804;81;20216;-50
2021/03/01 04:55:55;;;;;;;;;;;;;;;2.11;100.00;101740.03;1759055;81;20212;-50
2021/03/01 04:58:22;;;;;;;;;;;;;;;2.09;100.00;101733.80;1758862;81;20252;-50
2021/03/01 05:00:49;;;;;;;;;;;;;;;2.07;100.00;101740.82;1758965;81;20216;-50
2021/03/01 05:03:17;;;;;;;;;;;;;;;2.10;100.00;101743.52;1758884;81;21658;-50
2021/03/01 05:05:44;;;;;;;;;;;;;;;2.12;100.00;101753.27;1758804;81;20220;-50
2021/03/01 05:08:14;;;;;;;;;;;;;;;2.14;100.00;101755.50;1759002;81;20272;-50
2021/03/01 05:10:41;;;;;;;;;;;;;;;2.14;100.00;101753.30;1758900;81;20280;-50
2021/03/01 05:13:09;;;;;;;;;;;;;;;2.15;100.00;101755.08;1758908;81;20229;-50
2021/03/01 05:15:36;;;;;;;;;;;;;;;2.15;100.00;101759.05;1758902;81;21223;-50
2021/03/01 05:18:04;;;;;;;;;;;;;;;2.14;100.00;101761.24;1758825;81;20217;-49
2021/03/01 05:20:32;;;;;;;;;;;;;;;2.14;100.00;101769.19;1758860;81;20246;-50
2021/03/01 05:22:59;;;;;;;;;;;;;;;2.14;100.00;101765.21;1756366;81;20211;-50
2021/03/01 05:25:27;;;;;;;;;;;;;;;2.11;100.00;101773.98;1750889;82;20221;-50
2021/03/01 05:27:55;;;;;;;;;;;;;;;2.11;100.00;101788.98;1750857;81;21220;-49
2021/03/01 05:30:22;;;;;;;;;;;;;;;2.09;100.00;101786.30;1750793;82;20216;-50
2021/03/01 05:32:49;;;;;;;;;;;;;;;2.10;100.00;101788.08;1750929;82;20489;-50
2021/03/01 05:35:17;;;;;;;;;;;;;;;2.09;100.00;101788.03;1750891;82;20217;-50
2021/03/01 05:37:44;;;;;;;;;;;;;;;2.10;100.00;101789.81;1750791;82;20249;-50
2021/03/01 05:40:12;;;;;;;;;;;;;;;2.10;100.00;101793.37;1750952;82;21393;-50
2021/03/01 05:42:39;;;;;;;;;;;;;;;2.08;100.00;101798.16;1750728;82;20496;-50
2021/03/01 05:45:07;;;;;;;;;;;;;;;2.06;100.00;101802.54;1777358;80;20263;-50
2021/03/01 05:47:35;;;;;;;;;;;;;;;2.09;100.00;101807.88;1783385;80;20721;-50
2021/03/01 05:50:08;;;;;;;;;;;;;;;2.11;100.00;101812.34;1783470;80;20215;-50
2021/03/01 05:52:36;;;;;;;;;;;;;;;2.15;100.00;101814.62;1783339;80;21138;-50
2021/03/01 05:55:05;;;;;;;;;;;;;;;2.18;100.00;101818.64;1783358;80;20223;-50
2021/03/01 05:57:33;;;;;;;;;;;;;;;2.19;100.00;101828.36;1783381;80;20250;-50
2021/03/01 06:00:00;;;;;;;;;;;;;;;2.23;100.00;101831.95;1783433;80;20293;-49
2021/03/01 06:02:27;;;;;;;;;;;;;;;2.26;100.00;101832.88;1783538;80;20597;-50
2021/03/01 06:04:55;;;;;;;;;;;;;;;2.33;100.00;101837.84;1783539;80;21202;-50
2021/03/01 06:07:22;;;;;;;;;;;;;;;2.40;100.00;101835.75;1783437;80;20266;-50
2021/03/01 06:09:49;;;;;;;;;;;;;;;2.49;100.00;101841.62;1783410;80;20297;-52
2021/03/01 06:12:16;;;;;;;;;;;;;;;2.54;99.58;101843.94;1783454;80;20511;-51
2021/03/01 06:14:43;;;;;;;;;;;;;;;2.57;98.93;101853.25;1783442;80;20282;-51
2021/03/01 06:17:12;;;;;;;;;;;;;;;2.60;98.86;101851.52;1783551;80;21391;-49
2021/03/01 06:19:44;;;;;;;;;;;;;;;2.64;98.93;101854.22;1783305;80;20587;-52
2021/03/01 06:22:11;;;;;;;;;;;;;;;2.67;98.34;101856.03;1783439;80;20242;-52
2021/03/01 06:24:38;;;;;;;;;;;;;;;2.69;98.16;101864.47;1783290;80;20159;-51
2021/03/01 06:27:08;;;;;;;;;;;;;;;2.68;97.67;101871.05;1783424;80;20219;-51
2021/03/01 06:29:35;;;;;;;;;;;;;;;2.65;97.12;101863.06;1783420;80;22269;-50
2021/03/01 06:32:03;;;;;;;;;;;;;;;2.65;97.42;101864.39;1757086;80;20218;-50
2021/03/01 06:34:32;;;;;;;;;;;;;;;2.68;97.22;101865.76;1757686;80;20297;-50
2021/03/01 06:37:03;;;;;;;;;;;;;;;2.70;97.32;101871.97;1783292;80;20211;-50
2021/03/01 06:39:33;;;;;;;;;;;;;;;2.78;97.46;101876.97;1783366;80;20219;-50
2021/03/01 06:42:19;;;;;;;;;;;;;;;2.84;97.07;101881.03;1783290;80;21513;-51
2021/03/01 06:44:50;;;;;;;;;;;;;;;2.90;96.53;101883.30;1762478;80;20244;-50
2021/03/01 06:47:17;;;;;;;;;;;;;;;2.94;95.69;101886.45;1748865;82;20288;-50
2021/03/01 06:49:48;;;;;;;;;;;;;;;2.92;95.37;101889.52;1752314;82;20232;-50
2021/03/01 06:52:37;;;;;;;;;;;;;;;2.90;94.50;101894.81;1752380;81;20224;-50
2021/03/01 06:55:12;;;;;;;;;;;;;;;2.90;93.73;101900.52;1752358;82;21160;-50
2021/03/01 06:57:39;;;;;;;;;;;;;;;2.85;93.61;101900.03;1763176;80;20210;-50
2021/03/01 07:00:07;;;;;;;;;;;;;;;2.86;93.81;101900.48;1783128;80;20219;-51
2021/03/01 07:02:40;;;;;;;;;;;;;;;2.88;93.78;101894.31;1756585;80;20237;-50
2021/03/01 07:05:10;;;;;;;;;;;;;;;2.91;93.80;101895.69;1750624;82;20217;-50
2021/03/01 07:07:38;;;;;;;;;;;;;;;2.94;93.51;101915.59;1752408;80;20693;-52
2021/03/01 07:10:09;;;;;;;;;;;;;;;2.95;93.21;101909.02;1752083;81;20218;-51
2021/03/01 07:12:49;;;;;;;;;;;;;;;2.95;93.19;101912.08;1752230;81;20218;-52
2021/03/01 07:15:24;;;;;;;;;;;;;;;2.96;93.46;101909.88;1727003;82;20378;-52
2021/03/01 07:17:51;;;;;;;;;;;;;;;2.97;93.19;101920.52;1752394;80;20288;-52
2021/03/01 07:20:19;;;;;;;;;;;;;;;2.99;93.47;101916.58;1752467;82;22387;-52
2021/03/01 07:22:46;;;;;;;;;;;;;;;3.04;93.70;101917.53;1752213;82;20236;-51
2021/03/01 07:25:13;;;;;;;;;;;;;;;3.09;93.72;101925.11;1760050;81;20220;-51
2021/03/01 07:27:42;;;;;;;;;;;;;;;3.09;93.19;101923.78;1760274;81;20496;-51
2021/03/01 07:30:11;;;;;;;;;;;;;;;3.06;93.22;101915.80;1760447;81;20228;-51
2021/03/01 07:32:39;;;;;;;;;;;;;;;3.05;93.55;101919.31;1730641;81;21448;-52
2021/03/01 07:35:09;;;;;;;;;;;;;;;3.04;92.99;101932.11;1760371;81;20220;-51
2021/03/01 07:37:37;;;;;;;;;;;;;;;3.02;92.41;101931.20;1760485;81;20500;-51
2021/03/01 07:40:08;;;;;;;;;;;;;;;2.99;92.02;101924.53;1760412;81;20217;-52
2021/03/01 07:42:36;;;;;;;;;;;;;;;2.99;91.90;101927.18;1760475;81;20269;-51
2021/03/01 07:45:08;;;;;;;;;;;;;;;3.01;92.26;101930.74;1788011;80;21224;-52
2021/03/01 07:47:35;;;;;;;;;;;;;;;3.05;92.21;101932.56;1795152;80;20225;-52
2021/03/01 07:50:04;;;;;;;;;;;;;;;3.10;92.37;101941.47;1795065;80;20238;-52
2021/03/01 07:52:34;;;;;;;;;;;;;;;3.14;91.86;101943.74;1795200;80;20245;-52
2021/03/01 07:55:10;;;;;;;;;;;;;;;3.18;91.64;101952.61;1795127;80;20222;-52
2021/03/01 07:57:39;;;;;;;;;;;;;;;3.22;91.37;101948.71;1795238;80;21190;-52
2021/03/01 08:00:26;;;;;;;;;;;;;;;3.28;91.24;101948.80;1795072;80;20214;-53
2021/03/01 08:02:54;;;;;;;;;;;;;;;3.32;90.82;101953.72;1795171;80;20235;-51
2021/03/01 08:05:31;;;;;;;;;;;;;;;3.33;90.98;101959.47;1795222;80;20613;-51
2021/03/01 08:07:58;;;;;;;;;;;;;;;3.33;91.09;101952.84;1795122;80;20222;-51
2021/03/01 08:10:32;;;;;;;;;;;;;;;3.32;90.76;101965.65;1795290;80;22260;-51
2021/03/01 08:13:02;;;;;;;;;;;;;;;3.33;90.38;101975.38;1795148;80;20226;-51
2021/03/01 08:15:32;;;;;;;;;;;;;;;3.34;90.09;101970.98;1795009;80;20238;-52
2021/03/01 08:17:59;;;;;;;;;;;;;;;3.40;90.43;101968.41;1795050;80;20245;-52
2021/03/01 08:20:29;;;;;;;;;;;;;;;3.49;90.59;101973.84;1795152;80;20234;-51
2021/03/01 08:23:07;;;;;;;;;;;;;;;3.53;90.57;101982.73;1795085;80;21211;-51
2021/03/01 08:25:54;;;;;;;;;;;;;;;3.53;90.64;101980.95;1795020;79;20218;-51
2021/03/01 08:28:27;;;;;;;;;;;;;;;3.50;90.81;101978.72;1794328;80;20218;-51
2021/03/01 08:30:56;;;;;;;;;;;;;;;3.49;90.73;101986.22;1794853;80;20238;-52
2021/03/01 08:33:27;;;;;;;;;;;;;;;3.42;91.04;101994.06;1795027;80;20218;-52
2021/03/01 08:36:01;;;;;;;;;;;;;;;3.42;91.18;101994.06;1794975;80;21308;-52
2021/03/01 08:38:47;;;;;;;;;;;;;;;3.40;91.61;101990.50;1794867;80;20238;-52
2021/03/01 08:41:16;;;;;;;;;;;;;;;3.41;91.67;101990.08;1795093;80;20214;-52
2021/03/01 08:43:44;;;;;;;;;;;;;;;3.38;91.57;101985.61;1794165;80;20235;-51
2021/03/01 08:46:18;;;;;;;;;;;;;;;3.36;91.56;101991.33;1791574;80;20272;-51
2021/03/01 08:48:48;;;;;;;;;;;;;;;3.36;91.97;101992.66;1791592;80;21435;-51
2021/03/01 08:51:16;;;;;;;;;;;;;;;3.36;92.17;101993.98;1791471;80;20213;-51
2021/03/01 08:53:43;;;;;;;;;;;;;;;3.38;92.09;102006.83;1791565;80;20214;-53
2021/03/01 08:56:18;;;;;;;;;;;;;;;3.33;91.75;102015.15;1764467;80;20494;-52
2021/03/01 08:58:46;;;;;;;;;;;;;;;3.28;91.59;102022.15;1760099;81;20232;-51
2021/03/01 09:01:15;;;;;;;;;;;;;;;3.26;91.75;102014.61;1759630;81;20225;-52
2021/03/01 09:03:43;;;;;;;;;;;;;;;3.23;91.17;102010.13;1760278;81;20257;-51
2021/03/01 09:06:19;;;;;;;;;;;;;;;3.23;91.28;102021.19;1760381;81;20263;-51
2021/03/01 09:08:52;;;;;;;;;;;;;;;3.23;91.48;102014.56;1764822;80;20241;-50
2021/03/01 09:11:24;;;;;;;;;;;;;;;3.28;91.55;102019.50;1764347;80;20278;-53
2021/03/01 09:13:53;;;;;;;;;;;;;;;3.30;91.32;102022.61;1769726;80;21281;-51
2021/03/01 09:16:24;;;;;;;;;;;;;;;3.34;91.04;102024.88;1765609;80;20379;-51
2021/03/01 09:19:00;;;;;;;;;;;;;;;3.38;90.93;102026.70;1760172;81;20314;-51
2021/03/01 09:21:28;;;;;;;;;;;;;;;3.42;90.70;102027.66;1732698;81;20224;-52
2021/03/01 09:23:56;;;;;;;;;;;;;;;3.42;90.33;102039.14;1758644;81;20332;-52
2021/03/01 09:26:32;;;;;;;;;;;;;;;3.42;90.13;102052.84;1752224;82;21215;-50
2021/03/01 09:29:06;;;;;;;;;;;;;;;3.38;90.01;102034.66;1751940;82;20706;-50
2021/03/01 09:31:43;;;;;;;;;;;;;;;3.38;90.05;102051.02;1751923;82;20237;-52
2021/03/01 09:34:12;;;;;;;;;;;;;;;3.36;90.19;102033.75;1750156;82;20723;-52
2021/03/01 09:36:40;;;;;;;;;;;;;;;3.40;90.51;102050.16;1752646;82;20480;-51
2021/03/01 09:39:08;;;;;;;;;;;;;;;3.43;90.36;102046.26;1752451;82;21258;-51
2021/03/01 09:41:37;;;;;;;;;;;;;;;3.46;90.36;102055.12;1750291;82;20221;-51
2021/03/01 09:44:05;;;;;;;;;;;;;;;3.46;90.47;102057.78;1752385;81;20215;-51
2021/03/01 09:46:33;;;;;;;;;;;;;;;3.47;90.13;102055.58;1752417;82;20254;-52
2021/03/01 09:49:05;;;;;;;;;;;;;;;3.43;90.15;102054.21;1752460;82;20215;-51
2021/03/01 09:51:34;;;;;;;;;;;;;;;3.44;90.15;102057.32;1752455;82;21380;-52
2021/03/01 09:54:02;;;;;;;;;;;;;;;3.49;90.33;102071.95;1752482;82;20667;-52
2021/03/01 09:56:40;;;;;;;;;;;;;;;3.53;89.80;102072.91;1752383;81;20231;-51
2021/03/01 09:59:08;;;;;;;;;;;;;;;3.53;89.58;102066.27;1752552;82;20645;-52
2021/03/01 10:01:36;;;;;;;;;;;;;;;3.56;89.71;102079.58;1752425;82;20223;-52
2021/03/01 10:04:04;;;;;;;;;;;;;;;3.57;89.19;102076.05;1752423;82;21473;-52
2021/03/01 10:06:38;;;;;;;;;;;;;;;3.53;88.60;102080.86;1752389;82;20267;-52
2021/03/01 10:09:07;;;;;;;;;;;;;;;3.49;88.31;102084.34;1752448;82;20215;-52
2021/03/01 10:11:35;;;;;;;;;;;;;;;3.51;88.67;102086.12;1752435;80;20219;-51
2021/03/01 10:14:09;;;;;;;;;;;;;;;3.57;88.31;102076.96;1752259;82;20268;-51
2021/03/01 10:16:40;;;;;;;;;;;;;;;3.63;88.26;102080.12;1751710;82;21331;-51
2021/03/01 10:19:21;;;;;;;;;;;;;;;3.69;88.43;102079.33;1752198;82;20222;-52
2021/03/01 10:21:48;;;;;;;;;;;;;;;3.72;87.66;102082.02;1752343;82;20304;-52
2021/03/01 10:24:17;;;;;;;;;;;;;;;3.71;87.62;102086.88;1753220;81;20347;-52
2021/03/01 10:26:51;;;;;;;;;;;;;;;3.71;87.67;102089.52;1760581;81;20272;-51
2021/03/01 10:29:20;;;;;;;;;;;;;;;3.76;87.82;102086.95;1760409;81;21386;-51
2021/03/01 10:31:47;;;;;;;;;;;;;;;3.85;87.57;102099.01;1730836;81;20217;-50
2021/03/01 10:34:14;;;;;;;;;;;;;;;3.89;87.12;102090.25;1760385;81;20221;-51
2021/03/01 10:36:54;;;;;;;;;;;;;;;3.93;86.93;102093.41;1760460;81;20264;-51
2021/03/01 10:39:24;;;;;;;;;;;;;;;3.97;86.86;102107.16;1760496;81;20255;-55
2021/03/01 10:41:53;;;;;;;;;;;;;;;3.99;86.14;102104.09;1760388;81;21228;-51
2021/03/01 10:44:27;;;;;;;;;;;;;;;4.01;85.71;102101.48;1775697;80;20214;-52
2021/03/01 10:46:54;;;;;;;;;;;;;;;4.06;85.72;102098.86;1791675;80;20238;-51
2021/03/01 10:49:30;;;;;;;;;;;;;;;4.11;85.61;102102.50;1791668;80;21168;-51
2021/03/01 10:51:58;;;;;;;;;;;;;;;4.14;85.70;102095.45;1791658;80;20221;-50
2021/03/01 10:54:26;;;;;;;;;;;;;;;4.18;85.35;102099.05;1787034;80;21153;-50
2021/03/01 10:56:54;;;;;;;;;;;;;;;4.21;84.87;102099.08;1781153;80;20214;-51
2021/03/01 10:59:22;;;;;;;;;;;;;;;4.23;83.74;102092.02;1786252;80;20242;-51
2021/03/01 11:01:50;;;;;;;;;;;;;;;4.26;82.25;102101.35;1791408;80;20214;-52
2021/03/01 11:04:18;;;;;;;;;;;;;;;4.25;80.59;102104.87;1776134;80;20250;-51
2021/03/01 11:06:48;;;;;;;;;;;;;;;4.23;80.66;102109.28;1785662;80;21204;-51
2021/03/01 11:09:18;;;;;;;;;;;;;;;4.19;79.82;102128.70;1788260;80;20238;-52
2021/03/01 11:11:46;;;;;;;;;;;;;;;4.13;79.62;102112.70;1777148;80;20228;-51
2021/03/01 11:14:13;;;;;;;;;;;;;;;4.08;80.33;102110.39;1785337;80;20227;-51
2021/03/01 11:16:41;;;;;;;;;;;;;;;4.09;80.78;102122.79;1784226;80;20212;-52
2021/03/01 11:19:10;;;;;;;;;;;;;;;4.07;80.77;102125.86;1785268;79;21390;-51
2021/03/01 11:21:37;;;;;;;;;;;;;;;4.06;80.79;102120.09;1774622;81;20224;-51
2021/03/01 11:24:06;;;;;;;;;;;;;;;4.06;81.01;102118.77;1805412;79;20268;-51
2021/03/01 11:26:36;;;;;;;;;;;;;;;4.08;81.59;102113.95;1806091;79;20280;-51
2021/03/01 11:29:06;;;;;;;;;;;;;;;4.12;81.50;102128.17;1769005;80;20212;-50
2021/03/01 11:31:36;;;;;;;;;;;;;;;4.14;81.23;102122.45;1773960;80;21262;-51
2021/03/01 11:34:06;;;;;;;;;;;;;;;4.19;80.91;102111.86;1763128;81;20266;-51
2021/03/01 11:36:34;;;;;;;;;;;;;;;4.25;80.49;102130.55;1763314;81;20533;-51
2021/03/01 11:39:05;;;;;;;;;;;;;;;4.30;79.67;102139.47;1763375;81;20244;-51
2021/03/01 11:41:32;;;;;;;;;;;;;;;4.30;78.41;102127.52;1763100;81;20303;-52
2021/03/01 11:43:59;;;;;;;;;;;;;;;4.28;76.57;102131.92;1763406;81;21395;-51
2021/03/01 11:46:28;;;;;;;;;;;;;;;4.28;76.30;102131.92;1763269;80;20222;-51
2021/03/01 11:48:56;;;;;;;;;;;;;;;4.28;75.77;102127.94;1763370;81;20231;-51
2021/03/01 11:51:23;;;;;;;;;;;;;;;4.30;76.22;102139.47;1763339;81;20269;-51
2021/03/01 11:53:51;;;;;;;;;;;;;;;4.34;76.00;102137.30;1763363;81;20155;-51
2021/03/01 11:56:20;;;;;;;;;;;;;;;4.38;76.00;102142.23;1746281;81;21204;-51
2021/03/01 11:58:49;;;;;;;;;;;;;;;4.41;75.11;102148.91;1763312;81;20235;-51
2021/03/01 12:01:16;;;;;;;;;;;;;;;4.43;75.39;102139.19;1763405;81;20269;-50
2021/03/01 12:03:45;;;;;;;;;;;;;;;4.51;75.87;102137.52;1763223;81;20218;-51
2021/03/01 12:06:13;;;;;;;;;;;;;;;4.62;75.82;102140.75;1763432;81;20246;-51
2021/03/01 12:08:40;;;;;;;;;;;;;;;4.68;74.96;102146.13;1765062;80;21396;-52
2021/03/01 12:11:07;;;;;;;;;;;;;;;4.72;74.71;102151.52;1762960;80;20212;-51
2021/03/01 12:13:35;;;;;;;;;;;;;;;4.75;74.79;102146.66;1763299;81;20233;-52
2021/03/01 12:16:03;;;;;;;;;;;;;;;4.76;74.77;102148.89;1766292;80;20273;-51
2021/03/01 12:18:31;;;;;;;;;;;;;;;4.79;74.95;102144.52;1778265;80;20245;-51
2021/03/01 12:20:58;;;;;;;;;;;;;;;4.81;74.91;102145.42;1771899;80;21665;-51
2021/03/01 12:23:26;;;;;;;;;;;;;;;4.84;74.24;102146.78;1770711;80;20474;-51
2021/03/01 12:25:54;;;;;;;;;;;;;;;4.83;73.43;102152.97;1768810;80;20244;-51
2021/03/01 12:28:21;;;;;;;;;;;;;;;4.82;73.40;102149.86;1770449;80;20279;-52
2021/03/01 12:30:48;;;;;;;;;;;;;;;4.83;73.68;102154.30;1773390;80;20218;-51
2021/03/01 12:33:17;;;;;;;;;;;;;;;4.85;73.84;102160.52;1771752;79;21335;-52
2021/03/01 12:35:45;;;;;;;;;;;;;;;4.87;73.45;102161.42;1769288;80;20252;-52
2021/03/01 12:38:12;;;;;;;;;;;;;;;4.88;73.24;102156.56;1764997;80;20268;-52
2021/03/01 12:40:40;;;;;;;;;;;;;;;4.94;72.91;102158.83;1762791;80;20215;-53
2021/03/01 12:43:08;;;;;;;;;;;;;;;4.96;71.21;102165.05;1770966;80;20226;-52
2021/03/01 12:45:36;;;;;;;;;;;;;;;4.94;71.05;102163.72;1761180;80;21186;-52
2021/03/01 12:48:05;;;;;;;;;;;;;;;4.92;71.21;102165.89;1760427;80;20230;-52
2021/03/01 12:50:32;;;;;;;;;;;;;;;4.86;71.14;102167.61;1760445;81;20230;-52
2021/03/01 12:53:00;;;;;;;;;;;;;;;4.83;71.36;102170.23;1760394;81;20264;-52
2021/03/01 12:55:27;;;;;;;;;;;;;;;4.82;71.71;102175.10;1760424;81;20213;-53